logo
App data

Blob From Space

Blob From Space is a 2d side scroller game. Difficulty will change when progressing. Try to survive many challenges with only 3 continues! Let the rage begin!
Store | Hub | SteamDB | Site
Developer: JosPlays Publisher: KISS ltd
Genre: Casual, Indie
Languages: English
Tags: Indie (25), Casual (25), Platformer (11), Early Access (5)
Category: Single-player, Steam Achievements, Full controller support, Steam Trading Cards, Steam Workshop, Steam Cloud
Release date: Jul 4, 2020
Price: $1.99
Old userscore: 22% Owners: 50,000 .. 100,000
Followers: 0
YouTube stats: 1 views and 0 comments for top 50 videos uploaded last week, 0 new videos uploaded yesterday.
Playtime total: 06:32 (average) 07:44 (median)

Steam Spy is still in beta, so expect major bugs.

Owners data:

Access restricted.

This feature is only available to users with special access rights. Sorry.

If you want to proceed, you need to register or log in first and then back Steam Spy on Patreon. Look for Indie or Pro pledge.

Don't forget to use the same email as on Steam Spy!

If you've recently backed Steam Spy on Patreon, please note, that it might take around 15 minutes for your access rights to sync. In most cases you'll need to re-login on Steam Spy too.

Audience in 2 weeks:

Access restricted.

This feature is only available to users with special access rights. Sorry.

If you want to proceed, you need to register or log in first and then back Steam Spy on Patreon. Look for Indie or Pro pledge.

Don't forget to use the same email as on Steam Spy!

If you've recently backed Steam Spy on Patreon, please note, that it might take around 15 minutes for your access rights to sync. In most cases you'll need to re-login on Steam Spy too.

Peak daily concurrent players:

CCU data courtesy of SteamDB. Used with permission.

Hourly concurrent players:

Daily Twitch stats:

Hourly Twitch stats:

Followers over time

Access restricted.

This feature is only available to users with special access rights. Sorry.

If you want to proceed, you need to register or log in first and then back Steam Spy on Patreon. Look for Indie or Pro pledge.

Don't forget to use the same email as on Steam Spy!

If you've recently backed Steam Spy on Patreon, please note, that it might take around 15 minutes for your access rights to sync. In most cases you'll need to re-login on Steam Spy too.

Views for top 50 videos on YouTube for this game:

Games similar to this one:

# Game Release date
Price
Score rank
(Userscore / Metascore)
Owners
Players
Playtime (Median)
1 Cosmonautica Jul 31, 2015 $9.99N/A (N/A)200,000 .. 500,0000%00:00 (00:00)
2 Space Beret Oct 25, 2016 $0.99N/A (N/A)200,000 .. 500,0000%00:00 (00:00)
3 Goodnight Butcher Dec 18, 2015 $1.99N/A (N/A)0 .. 20,0000%00:00 (00:00)
4 Pixel Puzzles 2: Birds Feb 20, 2015 $4.99N/A (N/A)200,000 .. 500,0000%00:00 (00:00)
5 Ionball 2: Ionstorm Jun 6, 2014 $4.99N/A (N/A/70%)200,000 .. 500,0000%00:00 (00:00)
6 BalanCity Sep 21, 2016 $0.79N/A (N/A)50,000 .. 100,0000%00:00 (00:00)
7 Guardians of Victoria Apr 29, 2016 $1.99N/A (N/A)100,000 .. 200,0000%00:00 (00:00)
8 1953: NATO vs Warsaw Pact Nov 11, 2014 $19.99N/A (N/A)0 .. 20,0000%00:00 (00:00)
9 Governor of Poker 2 - Premium Edition Oct 11, 2010 $7.99N/A (N/A)20,000 .. 50,0000%00:00 (00:00)
10 Neon Prism Nov 18, 2016 $10.99N/A (N/A)50,000 .. 100,0000%00:00 (00:00)
11 White Mirror Jan 26, 2016 $4.99N/A (N/A)50,000 .. 100,0000%00:00 (00:00)
12 Stay Alight Mar 2, 2015 $3.99N/A (N/A)50,000 .. 100,0000%00:00 (00:00)
13 The Good Life Nov 21, 2014 $9.99N/A (N/A)0 .. 20,0000%00:00 (00:00)
14 Annie Amber Jun 17, 2016 $2.99N/A (N/A)0 .. 20,0000%00:00 (00:00)
15 Alpha Runner Sep 2, 2015 $0.99N/A (N/A)100,000 .. 200,0000%00:00 (00:00)
16 Alchemy Mysteries: Prague Legends Dec 22, 2014 $1.99N/A (N/A)100,000 .. 200,0000%00:00 (00:00)
17 Ancients of Ooga May 20, 2011 $9.99N/A (N/A)20,000 .. 50,0000%00:00 (00:00)
18 Estiman Nov 23, 2016 $0.99N/A (N/A)0 .. 20,0000%00:00 (00:00)
19 Iron Sea Defenders Sep 9, 2016 $4.99N/A (N/A)20,000 .. 50,0000%00:00 (00:00)
20 Unium Feb 3, 2015 $1.99N/A (N/A)0 .. 20,0000%00:00 (00:00)
21 Automation - The Car Company Tycoon Game Mar 12, 2015 $29.99N/A (N/A)200,000 .. 500,00015.38%04:07 (02:44)
22 BomberZone May 27, 2016 $0.99N/A (N/A)50,000 .. 100,0000%00:00 (00:00)
23 In Between Aug 21, 2015 $11.99N/A (N/A/68%)50,000 .. 100,0000%00:00 (00:00)
24 Cheesecake Cool Conrad Oct 8, 2014 $4.99N/A (N/A)0 .. 20,0000%00:00 (00:00)
25 Cloudberry Kingdom Aug 2, 2013 N/AN/A (N/A/67%)20,000 .. 50,0000%00:00 (00:00)
26 Attempt[42] Dec 8, 2016 $2.99N/A (N/A)50,000 .. 100,0000%00:00 (00:00)
27 Pointless Feb 22, 2016 FreeN/A (N/A)0 .. 20,0000%00:00 (00:00)
28 Boss Monster Apr 27, 2016 N/AN/A (N/A)20,000 .. 50,0000%00:00 (00:00)
29 CAPSULE Feb 14, 2012 $4.99N/A (N/A)0 .. 20,0000%00:00 (00:00)
30 Autumn Sep 23, 2014 $2.99N/A (N/A)100,000 .. 200,0000%00:00 (00:00)
31 Robot vs Birds Zombies Jul 23, 2015 $0.99N/A (N/A)500,000 .. 1,000,0000%00:00 (00:00)
32 Crab Cakes Rescue Nov 14, 2014 $6.99N/A (N/A)20,000 .. 50,0000%00:00 (00:00)
33 Divide By Sheep Jul 2, 2015 $4.99N/A (N/A/83%)2,000,000 .. 5,000,0000.47%00:19 (00:06)
34 Lobotomy Corporation | Monster Management Simulation Apr 9, 2018 $24.99N/A (N/A)500,000 .. 1,000,0004.55%11:53 (03:57)
35 Mind Games Mar 4, 2016 $2.99N/A (N/A)0 .. 20,0000%00:00 (00:00)
36 Egg Returns Home May 5, 2015 $0.99N/A (N/A)20,000 .. 50,0000%00:00 (00:00)
37 Wildlife Park 2 May 12, 2006 $6.99N/A (N/A)100,000 .. 200,0000%00:00 (00:00)
38 Reset 1-1 Aug 30, 2016 $1.99N/A (N/A)200,000 .. 500,0000%00:00 (00:00)
39 The Deletion Jul 30, 2015 $1.99N/A (N/A)20,000 .. 50,0000%00:00 (00:00)
40 Way to Go! Jun 8, 2015 $4.99N/A (N/A)0 .. 20,0000%00:00 (00:00)
41 MXGP - The Official Motocross Videogame Mar 28, 2014 $9.99N/A (N/A)20,000 .. 50,0000%00:00 (00:00)
42 Magic Box Jan 19, 2017 $0.99N/A (N/A)20,000 .. 50,0000%00:00 (00:00)
43 Airstrike HD Mar 23, 2016 $1.99N/A (N/A)200,000 .. 500,0000%00:00 (00:00)
44 The Architect Jun 4, 2015 N/AN/A (N/A)0 .. 20,0000%00:00 (00:00)
45 Cute Things Dying Violently Sep 2, 2015 $2.99N/A (N/A)0 .. 20,0000%00:00 (00:00)
46 Won't You Be My Laser? Sep 2, 2016 $0.99N/A (N/A)0 .. 20,0000%00:00 (00:00)
47 Evolution Jun 6, 2016 FreeN/A (N/A)20,000 .. 50,0000%00:00 (00:00)
48 Marble Duel: Sphere-Matching Tactical Fantasy Nov 12, 2015 $14.99N/A (N/A)50,000 .. 100,0000%00:00 (00:00)
49 Particulars Nov 19, 2014 FreeN/A (N/A/74%)0 .. 20,0000%00:00 (00:00)
50 Project Starship Apr 5, 2016 $2.99N/A (N/A)50,000 .. 100,0000%00:00 (00:00)
51 Space Drifters 2D Mar 28, 2016 $0.99N/A (N/A)20,000 .. 50,0000%00:00 (00:00)
52 Metrocide Oct 20, 2014 $12.99N/A (N/A/68%)50,000 .. 100,0000%00:00 (00:00)
53 Crash Wheels Dec 20, 2018 $4.99N/A (N/A)50,000 .. 100,0000%00:00 (00:00)
54 Ace Of Words May 13, 2016 $4.99N/A (N/A)100,000 .. 200,0000%00:00 (00:00)
55 Pixel Survivors May 5, 2016 $3.99N/A (N/A)50,000 .. 100,0000%00:00 (00:00)
56 Paranormal State: Poison Spring Nov 26, 2013 $9.99N/A (N/A)50,000 .. 100,0000%00:00 (00:00)
57 Forgotten, Not Lost - A Kinetic Novel Apr 2, 2016 $1.99N/A (N/A)20,000 .. 50,0000%00:00 (00:00)
58 Koala Kids Jun 22, 2015 $1.99N/A (N/A)50,000 .. 100,0000%00:00 (00:00)
59 This Starry Midnight We Make Jun 1, 2015 $9.99N/A (N/A)0 .. 20,0000%00:00 (00:00)
60 Luke Sidewalker Nov 25, 2016 FreeN/A (N/A)50,000 .. 100,0000%00:00 (00:00)
61 The Last NightMary - A Lenda do Cabeça de Cuia Nov 2, 2015 $3.99N/A (N/A)50,000 .. 100,0000%00:00 (00:00)
62 Crash Drive 2 May 28, 2015 $4.99N/A (N/A)200,000 .. 500,0000%00:00 (00:00)
63 Robot Rescue Revolution Jul 11, 2014 $4.99N/A (N/A)0 .. 20,0000%00:00 (00:00)
64 Melting Hearts: Our Love Will Grow 2 Apr 29, 2016 N/AN/A (N/A)0 .. 20,0000%00:00 (00:00)
65 Star Chronicles: Delta Quadrant Jul 7, 2015 $0.99N/A (N/A)200,000 .. 500,0000%00:00 (00:00)

Tags over time:

Access restricted.

This feature is only available to users with special access rights. Sorry.

If you want to proceed, you need to register or log in first and then back Steam Spy on Patreon. Look for Indie or Pro pledge.

Don't forget to use the same email as on Steam Spy!

If you've recently backed Steam Spy on Patreon, please note, that it might take around 15 minutes for your access rights to sync. In most cases you'll need to re-login on Steam Spy too.

Owners of this game also own:

Access restricted.

This feature is only available to users with special access rights. Sorry.

If you want to proceed, you need to register or log in first and then back Steam Spy on Patreon. Look for Indie or Pro pledge.

Don't forget to use the same email as on Steam Spy!

If you've recently backed Steam Spy on Patreon, please note, that it might take around 15 minutes for your access rights to sync. In most cases you'll need to re-login on Steam Spy too.

Playtime distribution:

Access restricted.

This feature is only available to users with special access rights. Sorry.

If you want to proceed, you need to register or log in first and then back Steam Spy on Patreon. Look for Indie or Pro pledge.

Don't forget to use the same email as on Steam Spy!

If you've recently backed Steam Spy on Patreon, please note, that it might take around 15 minutes for your access rights to sync. In most cases you'll need to re-login on Steam Spy too.

Playtime (2 weeks):

Access restricted.

This feature is only available to users with special access rights. Sorry.

If you want to proceed, you need to register or log in first and then back Steam Spy on Patreon. Look for Indie or Pro pledge.

Don't forget to use the same email as on Steam Spy!

If you've recently backed Steam Spy on Patreon, please note, that it might take around 15 minutes for your access rights to sync. In most cases you'll need to re-login on Steam Spy too.

User reviews:

Login required.

Please register or log in to see this information.